createdAt,value
2022-08-03T15:50:00.179Z,100723.93
2022-08-03T15:52:29.467Z,100723.20
2022-08-03T15:54:58.053Z,100723.30
2022-08-03T15:57:26.944Z,100725.20
2022-08-03T15:59:55.699Z,100719.95
2022-08-03T16:02:24.324Z,100722.48
2022-08-03T16:05:52.540Z,100723.27
2022-08-03T16:09:42.741Z,100727.11
2022-08-03T16:12:16.126Z,100729.85
2022-08-03T16:14:53.741Z,100726.42
2022-08-03T16:17:24.710Z,100727.95
2022-08-03T16:19:54.871Z,100728.30
2022-08-03T16:22:25.620Z,100730.28
2022-08-03T16:24:55.717Z,100728.44
2022-08-03T16:27:37.447Z,100728.59
2022-08-03T16:30:17.057Z,100732.73
2022-08-03T16:32:46.054Z,100736.39
2022-08-03T16:35:19.219Z,100736.90
2022-08-03T16:37:56.363Z,100738.95
2022-08-03T16:40:26.473Z,100743.73
2022-08-03T16:42:55.749Z,100744.38
2022-08-03T16:45:24.464Z,100744.23
2022-08-03T16:48:01.705Z,100747.55
2022-08-03T16:50:36.174Z,100750.12
2022-08-03T16:53:09.855Z,100749.67
2022-08-03T16:55:48.611Z,100752.33
2022-08-03T16:58:41.615Z,100752.45
2022-08-03T17:01:24.076Z,100754.23
2022-08-03T17:04:01.412Z,100760.17
2022-08-03T17:06:37.191Z,100760.66
2022-08-03T17:09:09.850Z,100760.90
2022-08-03T17:11:46.861Z,100760.92
2022-08-03T17:14:22.899Z,100763.74
2022-08-03T17:17:01.872Z,100767.00
2022-08-03T17:19:35.219Z,100766.52
2022-08-03T17:22:13.033Z,100766.11
2022-08-03T17:24:52.865Z,100769.90
2022-08-03T17:28:49.347Z,100773.35
2022-08-03T17:30:19.217Z,100779.29
2022-08-03T17:32:57.220Z,100782.77
2022-08-03T17:35:34.324Z,100783.11
2022-08-03T17:38:12.014Z,100786.20
2022-08-03T17:40:50.165Z,100789.52
2022-08-03T17:44:13.140Z,100791.06
2022-08-03T17:46:10.638Z,100798.46
2022-08-03T17:48:41.907Z,100802.64
2022-08-03T17:51:23.473Z,100802.55
2022-08-03T17:54:04.067Z,100807.90
2022-08-03T17:56:50.677Z,100808.18
2022-08-03T17:59:51.891Z,100808.20
2022-08-03T18:03:00.632Z,100817.13
2022-08-03T18:06:11.790Z,100824.11
2022-08-03T18:08:31.430Z,100825.45
2022-08-03T18:11:23.869Z,100830.96
2022-08-03T18:14:36.471Z,100834.52
2022-08-03T18:17:10.204Z,100838.61
2022-08-03T18:20:04.352Z,100841.19
2022-08-03T18:22:30.621Z,100843.66
2022-08-03T18:25:00.669Z,100848.23
2022-08-03T18:27:42.749Z,100848.52
2022-08-03T18:30:17.648Z,100847.34
2022-08-03T18:33:01.125Z,100855.83
2022-08-03T18:35:53.717Z,100856.30
2022-08-03T18:38:24.057Z,100856.21
2022-08-03T18:40:52.880Z,100853.30
2022-08-03T18:43:22.821Z,100855.16
2022-08-03T18:46:33.918Z,100855.70
2022-08-03T18:49:14.445Z,100862.47
2022-08-03T18:51:47.264Z,100865.23
2022-08-03T18:54:57.264Z,100872.00
2022-08-03T18:57:30.363Z,100869.60
2022-08-03T19:00:10.530Z,100874.52
2022-08-03T19:02:52.412Z,100871.79
2022-08-03T19:05:53.011Z,100872.92
2022-08-03T19:08:18.363Z,100874.39
2022-08-03T19:11:00.623Z,100876.23
2022-08-03T19:13:50.689Z,100878.94
2022-08-03T19:16:34.339Z,100876.75
2022-08-03T19:19:03.577Z,100882.73
2022-08-03T19:21:36.254Z,100888.65
2022-08-03T19:24:10.295Z,100895.00
2022-08-03T19:26:41.509Z,100893.91
2022-08-03T19:29:14.824Z,100896.59
2022-08-03T19:31:59.071Z,100898.95
2022-08-03T19:34:40.447Z,100902.55
2022-08-03T19:37:15.693Z,100901.55
2022-08-03T19:39:44.745Z,100902.55
2022-08-03T19:43:25.257Z,100906.86
2022-08-03T19:47:01.489Z,100910.73
2022-08-03T19:50:04.747Z,100910.09
2022-08-03T19:52:31.583Z,100908.30
2022-08-03T19:55:02.533Z,100910.61
2022-08-03T19:57:36.169Z,100910.11
2022-08-03T20:00:11.951Z,100910.77
2022-08-03T20:02:41.598Z,100911.89
2022-08-03T20:05:14.792Z,100910.98
2022-08-03T20:07:47.886Z,100908.70
2022-08-03T20:10:18.145Z,100909.31
2022-08-03T20:12:49.262Z,100909.71
2022-08-03T20:15:22.361Z,100911.58
2022-08-03T20:18:02.020Z,100911.10
2022-08-03T20:20:33.821Z,100916.36
2022-08-03T20:23:10.815Z,100914.73
2022-08-03T20:25:48.945Z,100914.05
2022-08-03T20:28:53.672Z,100911.15
2022-08-03T20:31:32.409Z,100913.45
2022-08-03T20:34:11.400Z,100914.87
2022-08-03T20:36:46.203Z,100918.96
2022-08-03T20:39:15.275Z,100918.96
2022-08-03T20:41:44.092Z,100920.27
2022-08-03T20:44:12.742Z,100925.45
2022-08-03T20:47:00.288Z,100923.61
2022-08-03T20:49:30.189Z,100926.64
2022-08-03T20:52:18.925Z,100926.71
2022-08-03T20:54:48.428Z,100925.23
2022-08-03T20:57:18.232Z,100930.80
2022-08-03T20:59:51.085Z,100931.17
2022-08-03T21:02:29.797Z,100938.19
2022-08-03T21:05:03.758Z,100933.69
2022-08-03T21:08:05.189Z,100938.61
2022-08-03T21:10:40.710Z,100940.84
2022-08-03T21:13:26.049Z,100943.89
2022-08-03T21:16:02.539Z,100945.02
2022-08-03T21:18:50.332Z,100946.11
2022-08-03T21:21:21.542Z,100951.06
2022-08-03T21:23:53.116Z,100953.05
2022-08-03T21:26:22.945Z,100955.40
2022-08-03T21:28:54.733Z,100955.58
2022-08-03T21:31:26.221Z,100958.52
2022-08-03T21:34:03.889Z,100960.96
2022-08-03T21:36:34.840Z,100963.35
2022-08-03T21:39:07.615Z,100965.14
2022-08-03T21:41:38.868Z,100967.67
2022-08-03T21:44:08.128Z,100969.31
2022-08-03T21:46:42.838Z,100970.77
2022-08-03T21:50:05.608Z,100969.73
2022-08-03T21:52:06.127Z,100975.34
2022-08-03T21:54:41.277Z,100973.59
2022-08-03T21:57:18.864Z,100979.08
2022-08-03T22:00:05.995Z,100977.41
2022-08-03T22:02:46.149Z,100980.62
2022-08-03T22:05:42.441Z,100978.21
2022-08-03T22:08:14.239Z,100977.75
2022-08-03T22:10:47.735Z,100978.34
2022-08-03T22:13:43.152Z,100982.11
2022-08-03T22:16:09.183Z,100986.20
2022-08-03T22:18:39.436Z,100981.89
2022-08-03T22:21:10.452Z,100985.77
2022-08-03T22:23:42.704Z,100984.66
2022-08-03T22:26:15.482Z,100982.89
2022-08-03T22:29:01.190Z,100981.21
2022-08-03T22:31:30.593Z,100985.77
2022-08-03T22:34:26.461Z,100988.25
2022-08-03T22:37:01.091Z,100989.37
2022-08-03T22:39:30.636Z,100988.67
2022-08-03T22:42:00.234Z,100987.08
2022-08-03T22:44:29.726Z,100985.16
2022-08-03T22:46:59.127Z,100986.48
2022-08-03T22:49:29.124Z,100985.22
2022-08-03T22:51:59.517Z,100985.59
2022-08-03T22:54:29.024Z,100984.30
2022-08-03T22:56:58.635Z,100981.55
2022-08-03T22:59:40.489Z,100981.52
2022-08-03T23:02:21.825Z,100979.82
2022-08-03T23:04:53.349Z,100981.30
2022-08-03T23:07:30.762Z,100980.09
2022-08-03T23:10:02.109Z,100979.09
2022-08-03T23:12:31.105Z,100978.90
2022-08-03T23:15:03.840Z,100976.70
2022-08-03T23:17:34.004Z,100975.12
2022-08-03T23:20:26.665Z,100974.35
2022-08-03T23:22:58.006Z,100975.60
2022-08-03T23:25:27.613Z,100972.96
2022-08-03T23:28:05.432Z,100974.07
2022-08-03T23:30:37.705Z,100969.73
2022-08-03T23:33:07.089Z,100976.88
2022-08-03T23:36:28.891Z,100974.75
2022-08-03T23:38:46.310Z,100974.45
2022-08-03T23:41:18.107Z,100975.96
2022-08-03T23:43:53.689Z,100976.95
2022-08-03T23:46:26.237Z,100977.11
2022-08-03T23:48:56.544Z,100975.94
2022-08-03T23:51:31.459Z,100974.23
2022-08-03T23:54:27.417Z,100976.98
2022-08-03T23:57:07.676Z,100977.94
2022-08-03T23:59:52.549Z,100984.98
